sensor_id;sensor_type;location;lat;lon;timestamp;temperature;humidity
18321;DHT22;54904;54.350;18.664;2022-08-19T00:01:53;26.80;99.90
18321;DHT22;54904;54.350;18.664;2022-08-19T00:04:22;26.70;99.90
18321;DHT22;54904;54.350;18.664;2022-08-19T00:06:51;26.70;99.90
18321;DHT22;54904;54.350;18.664;2022-08-19T00:09:20;26.70;99.90
18321;DHT22;54904;54.350;18.664;2022-08-19T00:11:48;26.60;99.90
18321;DHT22;54904;54.350;18.664;2022-08-19T00:14:16;26.60;99.90
18321;DHT22;54904;54.350;18.664;2022-08-19T00:16:45;26.60;99.90
18321;DHT22;54904;54.350;18.664;2022-08-19T00:19:13;26.60;99.90
18321;DHT22;54904;54.350;18.664;2022-08-19T00:21:40;26.60;99.90
18321;DHT22;54904;54.350;18.664;2022-08-19T00:24:11;26.60;99.90
18321;DHT22;54904;54.350;18.664;2022-08-19T00:26:39;26.50;99.90
18321;DHT22;54904;54.350;18.664;2022-08-19T00:29:08;26.50;99.90
18321;DHT22;54904;54.350;18.664;2022-08-19T00:31:35;26.40;99.90
18321;DHT22;54904;54.350;18.664;2022-08-19T00:34:02;26.40;99.90
18321;DHT22;54904;54.350;18.664;2022-08-19T00:36:29;26.40;99.90
18321;DHT22;54904;54.350;18.664;2022-08-19T00:38:59;26.30;99.90
18321;DHT22;54904;54.350;18.664;2022-08-19T00:41:28;26.30;99.90
18321;DHT22;54904;54.350;18.664;2022-08-19T00:44:06;26.30;99.90
18321;DHT22;54904;54.350;18.664;2022-08-19T00:46:36;26.30;99.90
18321;DHT22;54904;54.350;18.664;2022-08-19T00:49:10;26.20;99.90
18321;DHT22;54904;54.350;18.664;2022-08-19T00:51:41;26.20;99.90
18321;DHT22;54904;54.350;18.664;2022-08-19T00:54:09;26.20;99.90
18321;DHT22;54904;54.350;18.664;2022-08-19T00:56:38;26.20;99.90
18321;DHT22;54904;54.350;18.664;2022-08-19T00:59:06;26.20;99.90
18321;DHT22;54904;54.350;18.664;2022-08-19T01:01:34;26.10;99.90
18321;DHT22;54904;54.350;18.664;2022-08-19T01:04:02;26.10;99.90
18321;DHT22;54904;54.350;18.664;2022-08-19T01:06:29;26.10;99.90
18321;DHT22;54904;54.350;18.664;2022-08-19T01:08:58;26.00;99.90
18321;DHT22;54904;54.350;18.664;2022-08-19T01:11:26;26.10;99.90
18321;DHT22;54904;54.350;18.664;2022-08-19T01:13:54;26.00;99.90
18321;DHT22;54904;54.350;18.664;2022-08-19T01:16:24;26.00;99.90
18321;DHT22;54904;54.350;18.664;2022-08-19T01:18:52;26.00;99.90
18321;DHT22;54904;54.350;18.664;2022-08-19T01:21:25;25.90;99.90
18321;DHT22;54904;54.350;18.664;2022-08-19T01:23:56;25.90;99.90
18321;DHT22;54904;54.350;18.664;2022-08-19T01:26:25;25.90;99.90
18321;DHT22;54904;54.350;18.664;2022-08-19T01:28:56;25.90;99.90
18321;DHT22;54904;54.350;18.664;2022-08-19T01:31:26;25.90;99.90
18321;DHT22;54904;54.350;18.664;2022-08-19T01:33:57;25.80;99.90
18321;DHT22;54904;54.350;18.664;2022-08-19T01:36:28;25.80;99.90
18321;DHT22;54904;54.350;18.664;2022-08-19T01:38:57;25.80;99.90
18321;DHT22;54904;54.350;18.664;2022-08-19T01:41:25;25.70;99.90
18321;DHT22;54904;54.350;18.664;2022-08-19T01:43:53;25.70;99.90
18321;DHT22;54904;54.350;18.664;2022-08-19T01:46:21;25.70;99.90
18321;DHT22;54904;54.350;18.664;2022-08-19T01:48:49;25.80;99.90
18321;DHT22;54904;54.350;18.664;2022-08-19T01:51:16;25.80;99.90
18321;DHT22;54904;54.350;18.664;2022-08-19T01:53:47;25.80;99.90
18321;DHT22;54904;54.350;18.664;2022-08-19T01:56:15;25.80;99.90
18321;DHT22;54904;54.350;18.664;2022-08-19T01:58:47;25.80;99.90
18321;DHT22;54904;54.350;18.664;2022-08-19T02:01:16;25.70;99.90
18321;DHT22;54904;54.350;18.664;2022-08-19T02:03:43;25.70;99.90
18321;DHT22;54904;54.350;18.664;2022-08-19T02:06:11;25.70;99.90
18321;DHT22;54904;54.350;18.664;2022-08-19T02:08:39;25.70;99.90
18321;DHT22;54904;54.350;18.664;2022-08-19T02:11:07;25.70;99.90
18321;DHT22;54904;54.350;18.664;2022-08-19T02:13:35;25.70;99.90
18321;DHT22;54904;54.350;18.664;2022-08-19T02:16:02;25.70;99.90
18321;DHT22;54904;54.350;18.664;2022-08-19T02:18:29;25.70;99.90
18321;DHT22;54904;54.350;18.664;2022-08-19T02:20:56;25.70;99.90
18321;DHT22;54904;54.350;18.664;2022-08-19T02:23:23;25.70;99.90
18321;DHT22;54904;54.350;18.664;2022-08-19T02:25:51;25.70;99.90
18321;DHT22;54904;54.350;18.664;2022-08-19T02:28:18;25.70;99.90
18321;DHT22;54904;54.350;18.664;2022-08-19T02:30:48;25.70;99.90
18321;DHT22;54904;54.350;18.664;2022-08-19T02:33:15;25.70;99.90
18321;DHT22;54904;54.350;18.664;2022-08-19T02:35:43;25.70;99.90
18321;DHT22;54904;54.350;18.664;2022-08-19T02:38:11;25.70;99.90
18321;DHT22;54904;54.350;18.664;2022-08-19T02:40:54;25.70;99.90
18321;DHT22;54904;54.350;18.664;2022-08-19T02:43:21;25.60;99.90
18321;DHT22;54904;54.350;18.664;2022-08-19T02:45:51;25.50;99.90
18321;DHT22;54904;54.350;18.664;2022-08-19T02:48:19;25.50;99.90
18321;DHT22;54904;54.350;18.664;2022-08-19T02:50:47;25.40;99.90
18321;DHT22;54904;54.350;18.664;2022-08-19T02:53:17;25.40;99.90
18321;DHT22;54904;54.350;18.664;2022-08-19T02:55:45;25.40;99.90
18321;DHT22;54904;54.350;18.664;2022-08-19T02:58:13;25.40;99.90
18321;DHT22;54904;54.350;18.664;2022-08-19T03:00:45;25.40;99.90
18321;DHT22;54904;54.350;18.664;2022-08-19T03:03:14;25.40;99.90
18321;DHT22;54904;54.350;18.664;2022-08-19T03:05:41;25.40;99.90
18321;DHT22;54904;54.350;18.664;2022-08-19T03:08:09;25.40;99.90
18321;DHT22;54904;54.350;18.664;2022-08-19T03:10:42;25.30;99.90
18321;DHT22;54904;54.350;18.664;2022-08-19T03:13:13;25.30;99.90
18321;DHT22;54904;54.350;18.664;2022-08-19T03:15:41;25.30;99.90
18321;DHT22;54904;54.350;18.664;2022-08-19T03:18:09;25.30;99.90
18321;DHT22;54904;54.350;18.664;2022-08-19T03:20:42;25.30;99.90
18321;DHT22;54904;54.350;18.664;2022-08-19T03:23:10;25.30;99.90
18321;DHT22;54904;54.350;18.664;2022-08-19T03:25:39;25.30;99.90
18321;DHT22;54904;54.350;18.664;2022-08-19T03:28:10;25.30;99.90
18321;DHT22;54904;54.350;18.664;2022-08-19T03:30:38;25.30;99.90
18321;DHT22;54904;54.350;18.664;2022-08-19T03:33:07;25.30;99.90
18321;DHT22;54904;54.350;18.664;2022-08-19T03:35:34;25.30;99.90
18321;DHT22;54904;54.350;18.664;2022-08-19T03:38:03;25.30;99.90
18321;DHT22;54904;54.350;18.664;2022-08-19T03:40:31;25.20;99.90
18321;DHT22;54904;54.350;18.664;2022-08-19T03:43:00;25.20;99.90
18321;DHT22;54904;54.350;18.664;2022-08-19T03:45:28;25.20;99.90
18321;DHT22;54904;54.350;18.664;2022-08-19T03:47:55;25.20;99.90
18321;DHT22;54904;54.350;18.664;2022-08-19T03:50:22;25.20;99.90
18321;DHT22;54904;54.350;18.664;2022-08-19T03:52:50;25.20;99.90
18321;DHT22;54904;54.350;18.664;2022-08-19T03:55:19;25.20;99.90
18321;DHT22;54904;54.350;18.664;2022-08-19T03:57:46;25.20;99.90
18321;DHT22;54904;54.350;18.664;2022-08-19T04:00:15;25.20;99.90
18321;DHT22;54904;54.350;18.664;2022-08-19T04:02:42;25.10;99.90
18321;DHT22;54904;54.350;18.664;2022-08-19T04:05:09;25.10;99.90
18321;DHT22;54904;54.350;18.664;2022-08-19T04:07:36;25.20;99.90
18321;DHT22;54904;54.350;18.664;2022-08-19T04:10:04;25.20;99.90
18321;DHT22;54904;54.350;18.664;2022-08-19T04:12:32;25.20;99.90
18321;DHT22;54904;54.350;18.664;2022-08-19T04:14:59;25.20;99.90
18321;DHT22;54904;54.350;18.664;2022-08-19T04:17:26;25.20;99.90
18321;DHT22;54904;54.350;18.664;2022-08-19T04:19:53;25.20;99.90
18321;DHT22;54904;54.350;18.664;2022-08-19T04:22:20;25.20;99.90
18321;DHT22;54904;54.350;18.664;2022-08-19T04:24:47;25.30;99.90
18321;DHT22;54904;54.350;18.664;2022-08-19T04:27:14;25.30;99.90
18321;DHT22;54904;54.350;18.664;2022-08-19T04:29:43;25.30;99.90
18321;DHT22;54904;54.350;18.664;2022-08-19T04:32:10;25.30;99.90
18321;DHT22;54904;54.350;18.664;2022-08-19T04:34:41;25.30;99.90
18321;DHT22;54904;54.350;18.664;2022-08-19T04:37:09;25.30;99.90
18321;DHT22;54904;54.350;18.664;2022-08-19T04:39:39;25.30;99.90
18321;DHT22;54904;54.350;18.664;2022-08-19T04:42:24;25.30;99.90
18321;DHT22;54904;54.350;18.664;2022-08-19T04:45:10;25.30;99.90
18321;DHT22;54904;54.350;18.664;2022-08-19T04:47:38;25.30;99.90
18321;DHT22;54904;54.350;18.664;2022-08-19T04:50:06;25.30;99.90
18321;DHT22;54904;54.350;18.664;2022-08-19T04:52:34;25.40;99.90
18321;DHT22;54904;54.350;18.664;2022-08-19T04:55:01;25.40;99.90
18321;DHT22;54904;54.350;18.664;2022-08-19T04:57:28;25.40;99.90
18321;DHT22;54904;54.350;18.664;2022-08-19T04:59:56;25.50;99.90
18321;DHT22;54904;54.350;18.664;2022-08-19T05:02:24;25.50;99.90
18321;DHT22;54904;54.350;18.664;2022-08-19T05:04:56;25.60;99.90
18321;DHT22;54904;54.350;18.664;2022-08-19T05:07:25;25.60;99.90
18321;DHT22;54904;54.350;18.664;2022-08-19T05:09:52;25.60;99.90
18321;DHT22;54904;54.350;18.664;2022-08-19T05:12:19;25.60;99.90
18321;DHT22;54904;54.350;18.664;2022-08-19T05:14:46;25.60;99.90
18321;DHT22;54904;54.350;18.664;2022-08-19T05:17:13;25.60;99.90
18321;DHT22;54904;54.350;18.664;2022-08-19T05:19:41;25.60;99.90
18321;DHT22;54904;54.350;18.664;2022-08-19T05:22:26;25.60;99.90
18321;DHT22;54904;54.350;18.664;2022-08-19T05:25:06;25.60;99.90
18321;DHT22;54904;54.350;18.664;2022-08-19T05:27:34;25.60;99.90
18321;DHT22;54904;54.350;18.664;2022-08-19T05:30:01;25.60;99.90
18321;DHT22;54904;54.350;18.664;2022-08-19T05:32:28;25.60;99.90
18321;DHT22;54904;54.350;18.664;2022-08-19T05:34:56;25.60;99.90
18321;DHT22;54904;54.350;18.664;2022-08-19T05:37:23;25.60;99.90
18321;DHT22;54904;54.350;18.664;2022-08-19T05:39:53;25.70;99.90
18321;DHT22;54904;54.350;18.664;2022-08-19T05:42:21;25.70;99.90
18321;DHT22;54904;54.350;18.664;2022-08-19T05:44:49;25.70;99.90
18321;DHT22;54904;54.350;18.664;2022-08-19T05:47:17;25.80;99.90
18321;DHT22;54904;54.350;18.664;2022-08-19T05:49:45;25.80;99.90
18321;DHT22;54904;54.350;18.664;2022-08-19T05:52:15;25.80;99.90
18321;DHT22;54904;54.350;18.664;2022-08-19T05:54:42;25.80;99.90
18321;DHT22;54904;54.350;18.664;2022-08-19T05:57:10;25.80;99.90
18321;DHT22;54904;54.350;18.664;2022-08-19T05:59:37;25.80;99.90
18321;DHT22;54904;54.350;18.664;2022-08-19T06:02:05;25.80;99.90
18321;DHT22;54904;54.350;18.664;2022-08-19T06:04:33;25.90;99.90
18321;DHT22;54904;54.350;18.664;2022-08-19T06:07:01;25.90;99.90
18321;DHT22;54904;54.350;18.664;2022-08-19T06:09:32;25.90;99.90
18321;DHT22;54904;54.350;18.664;2022-08-19T06:11:59;26.10;99.90
18321;DHT22;54904;54.350;18.664;2022-08-19T06:14:30;26.00;99.90
18321;DHT22;54904;54.350;18.664;2022-08-19T06:16:58;26.10;99.90
18321;DHT22;54904;54.350;18.664;2022-08-19T06:19:28;26.10;99.90
18321;DHT22;54904;54.350;18.664;2022-08-19T06:21:57;26.20;99.90
18321;DHT22;54904;54.350;18.664;2022-08-19T06:24:26;26.20;99.90
18321;DHT22;54904;54.350;18.664;2022-08-19T06:26:56;26.30;99.90
18321;DHT22;54904;54.350;18.664;2022-08-19T06:29:25;26.30;99.90
18321;DHT22;54904;54.350;18.664;2022-08-19T06:31:54;26.30;99.90
18321;DHT22;54904;54.350;18.664;2022-08-19T06:34:22;26.30;99.90
18321;DHT22;54904;54.350;18.664;2022-08-19T06:36:51;26.40;99.90
18321;DHT22;54904;54.350;18.664;2022-08-19T06:39:20;26.40;99.90
18321;DHT22;54904;54.350;18.664;2022-08-19T06:41:49;26.50;99.90
18321;DHT22;54904;54.350;18.664;2022-08-19T06:44:19;26.50;99.90
18321;DHT22;54904;54.350;18.664;2022-08-19T06:46:46;26.60;99.90
18321;DHT22;54904;54.350;18.664;2022-08-19T06:49:14;26.60;99.90
18321;DHT22;54904;54.350;18.664;2022-08-19T06:51:42;26.70;99.90
18321;DHT22;54904;54.350;18.664;2022-08-19T06:54:10;26.70;99.90
18321;DHT22;54904;54.350;18.664;2022-08-19T06:56:37;26.70;99.90
18321;DHT22;54904;54.350;18.664;2022-08-19T06:59:07;26.80;99.90
18321;DHT22;54904;54.350;18.664;2022-08-19T07:01:38;26.90;99.90
18321;DHT22;54904;54.350;18.664;2022-08-19T07:04:06;27.00;99.90
18321;DHT22;54904;54.350;18.664;2022-08-19T07:06:34;27.00;99.90
18321;DHT22;54904;54.350;18.664;2022-08-19T07:09:03;27.10;99.90
18321;DHT22;54904;54.350;18.664;2022-08-19T07:11:30;27.20;99.90
18321;DHT22;54904;54.350;18.664;2022-08-19T07:13:58;27.20;99.90
18321;DHT22;54904;54.350;18.664;2022-08-19T07:16:25;27.20;99.90
18321;DHT22;54904;54.350;18.664;2022-08-19T07:18:55;27.30;99.90
18321;DHT22;54904;54.350;18.664;2022-08-19T07:21:25;27.30;99.90
18321;DHT22;54904;54.350;18.664;2022-08-19T07:23:54;27.40;99.90
18321;DHT22;54904;54.350;18.664;2022-08-19T07:26:24;27.40;99.90
18321;DHT22;54904;54.350;18.664;2022-08-19T07:28:51;27.50;99.90
18321;DHT22;54904;54.350;18.664;2022-08-19T07:31:20;27.60;99.90
18321;DHT22;54904;54.350;18.664;2022-08-19T07:33:50;27.60;99.90
18321;DHT22;54904;54.350;18.664;2022-08-19T07:36:22;27.70;99.90
18321;DHT22;54904;54.350;18.664;2022-08-19T07:38:50;27.70;99.90
18321;DHT22;54904;54.350;18.664;2022-08-19T07:41:23;27.80;99.90
18321;DHT22;54904;54.350;18.664;2022-08-19T07:43:51;27.80;99.90
18321;DHT22;54904;54.350;18.664;2022-08-19T07:46:19;27.90;99.90
18321;DHT22;54904;54.350;18.664;2022-08-19T07:48:48;27.90;99.90
18321;DHT22;54904;54.350;18.664;2022-08-19T07:51:20;28.00;99.90
18321;DHT22;54904;54.350;18.664;2022-08-19T07:53:48;28.10;99.90
18321;DHT22;54904;54.350;18.664;2022-08-19T07:56:16;28.10;99.90
18321;DHT22;54904;54.350;18.664;2022-08-19T07:58:46;28.20;99.90
18321;DHT22;54904;54.350;18.664;2022-08-19T08:01:16;28.20;99.90
18321;DHT22;54904;54.350;18.664;2022-08-19T08:03:43;28.30;99.90
18321;DHT22;54904;54.350;18.664;2022-08-19T08:06:29;28.30;99.90
18321;DHT22;54904;54.350;18.664;2022-08-19T08:09:17;28.40;99.90
18321;DHT22;54904;54.350;18.664;2022-08-19T08:11:51;28.40;99.90
18321;DHT22;54904;54.350;18.664;2022-08-19T08:14:20;28.50;99.90
18321;DHT22;54904;54.350;18.664;2022-08-19T08:16:48;28.50;99.90
18321;DHT22;54904;54.350;18.664;2022-08-19T08:19:18;28.60;99.90
18321;DHT22;54904;54.350;18.664;2022-08-19T08:21:47;28.70;99.90
18321;DHT22;54904;54.350;18.664;2022-08-19T08:24:15;28.80;99.80
18321;DHT22;54904;54.350;18.664;2022-08-19T08:26:42;28.80;99.80
18321;DHT22;54904;54.350;18.664;2022-08-19T08:29:09;28.90;99.60
18321;DHT22;54904;54.350;18.664;2022-08-19T08:31:39;28.90;99.30
18321;DHT22;54904;54.350;18.664;2022-08-19T08:34:06;28.90;98.90
18321;DHT22;54904;54.350;18.664;2022-08-19T08:36:36;29.00;98.90
18321;DHT22;54904;54.350;18.664;2022-08-19T08:39:08;29.00;98.00
18321;DHT22;54904;54.350;18.664;2022-08-19T08:41:44;29.00;97.90
18321;DHT22;54904;54.350;18.664;2022-08-19T08:44:15;29.00;97.80
18321;DHT22;54904;54.350;18.664;2022-08-19T08:46:47;29.10;97.90
18321;DHT22;54904;54.350;18.664;2022-08-19T08:49:26;29.10;97.80
18321;DHT22;54904;54.350;18.664;2022-08-19T08:52:00;29.10;97.40
18321;DHT22;54904;54.350;18.664;2022-08-19T08:54:33;29.10;97.50
18321;DHT22;54904;54.350;18.664;2022-08-19T08:57:05;29.20;97.70
18321;DHT22;54904;54.350;18.664;2022-08-19T08:59:35;29.30;97.70
18321;DHT22;54904;54.350;18.664;2022-08-19T09:02:04;29.30;97.00
18321;DHT22;54904;54.350;18.664;2022-08-19T09:04:31;29.40;96.90
18321;DHT22;54904;54.350;18.664;2022-08-19T09:07:17;29.40;96.50
18321;DHT22;54904;54.350;18.664;2022-08-19T09:09:51;29.50;96.30
18321;DHT22;54904;54.350;18.664;2022-08-19T09:12:25;29.60;96.00
18321;DHT22;54904;54.350;18.664;2022-08-19T09:15:03;29.70;95.60
18321;DHT22;54904;54.350;18.664;2022-08-19T09:17:31;29.80;95.00
18321;DHT22;54904;54.350;18.664;2022-08-19T09:20:02;29.80;94.80
18321;DHT22;54904;54.350;18.664;2022-08-19T09:22:33;29.80;94.40
18321;DHT22;54904;54.350;18.664;2022-08-19T09:25:02;29.90;94.40
18321;DHT22;54904;54.350;18.664;2022-08-19T09:27:30;29.90;94.50
18321;DHT22;54904;54.350;18.664;2022-08-19T09:29:58;30.00;94.30
18321;DHT22;54904;54.350;18.664;2022-08-19T09:32:25;30.00;94.40
18321;DHT22;54904;54.350;18.664;2022-08-19T09:34:53;30.10;94.30
18321;DHT22;54904;54.350;18.664;2022-08-19T09:37:20;30.10;94.10
18321;DHT22;54904;54.350;18.664;2022-08-19T09:39:48;30.20;93.80
18321;DHT22;54904;54.350;18.664;2022-08-19T09:42:16;30.20;93.30
18321;DHT22;54904;54.350;18.664;2022-08-19T09:44:43;30.20;93.20
18321;DHT22;54904;54.350;18.664;2022-08-19T09:47:12;30.30;93.20
18321;DHT22;54904;54.350;18.664;2022-08-19T09:49:40;30.30;93.20
18321;DHT22;54904;54.350;18.664;2022-08-19T09:52:08;30.30;93.50
18321;DHT22;54904;54.350;18.664;2022-08-19T09:54:36;30.40;93.60
18321;DHT22;54904;54.350;18.664;2022-08-19T09:57:03;30.40;93.40
18321;DHT22;54904;54.350;18.664;2022-08-19T09:59:32;30.50;93.20
18321;DHT22;54904;54.350;18.664;2022-08-19T10:01:59;30.60;92.10
18321;DHT22;54904;54.350;18.664;2022-08-19T10:04:26;30.60;91.90
18321;DHT22;54904;54.350;18.664;2022-08-19T10:07:13;30.70;91.50
18321;DHT22;54904;54.350;18.664;2022-08-19T10:09:41;30.80;90.90
18321;DHT22;54904;54.350;18.664;2022-08-19T10:12:08;30.90;90.70
18321;DHT22;54904;54.350;18.664;2022-08-19T10:14:38;31.00;90.50
18321;DHT22;54904;54.350;18.664;2022-08-19T10:17:05;31.10;90.20
18321;DHT22;54904;54.350;18.664;2022-08-19T10:19:32;31.20;89.50
18321;DHT22;54904;54.350;18.664;2022-08-19T10:22:03;31.30;87.50
18321;DHT22;54904;54.350;18.664;2022-08-19T10:24:31;31.40;87.70
18321;DHT22;54904;54.350;18.664;2022-08-19T10:27:00;31.40;87.30
18321;DHT22;54904;54.350;18.664;2022-08-19T10:29:29;31.40;86.80
18321;DHT22;54904;54.350;18.664;2022-08-19T10:31:59;31.40;86.50
18321;DHT22;54904;54.350;18.664;2022-08-19T10:34:29;31.40;86.30
18321;DHT22;54904;54.350;18.664;2022-08-19T10:36:57;31.30;84.70
18321;DHT22;54904;54.350;18.664;2022-08-19T10:39:26;31.20;84.40
18321;DHT22;54904;54.350;18.664;2022-08-19T10:41:55;31.20;84.50
18321;DHT22;54904;54.350;18.664;2022-08-19T10:44:22;31.20;85.10
18321;DHT22;54904;54.350;18.664;2022-08-19T10:46:50;31.20;85.60
18321;DHT22;54904;54.350;18.664;2022-08-19T10:49:19;31.20;85.70
18321;DHT22;54904;54.350;18.664;2022-08-19T10:51:46;31.30;85.30
18321;DHT22;54904;54.350;18.664;2022-08-19T10:54:31;31.30;85.40
18321;DHT22;54904;54.350;18.664;2022-08-19T10:57:13;31.40;84.70
18321;DHT22;54904;54.350;18.664;2022-08-19T10:59:41;31.50;84.40
18321;DHT22;54904;54.350;18.664;2022-08-19T11:02:09;31.60;83.30
18321;DHT22;54904;54.350;18.664;2022-08-19T11:04:39;31.60;84.20
18321;DHT22;54904;54.350;18.664;2022-08-19T11:07:07;31.70;84.50
18321;DHT22;54904;54.350;18.664;2022-08-19T11:09:38;31.80;83.70
18321;DHT22;54904;54.350;18.664;2022-08-19T11:12:07;31.90;83.60
18321;DHT22;54904;54.350;18.664;2022-08-19T11:14:35;31.90;83.10
18321;DHT22;54904;54.350;18.664;2022-08-19T11:17:03;32.00;83.00
18321;DHT22;54904;54.350;18.664;2022-08-19T11:19:32;32.10;83.10
18321;DHT22;54904;54.350;18.664;2022-08-19T11:22:00;32.10;81.30
18321;DHT22;54904;54.350;18.664;2022-08-19T11:24:29;32.20;80.40
18321;DHT22;54904;54.350;18.664;2022-08-19T11:27:02;32.20;80.20
18321;DHT22;54904;54.350;18.664;2022-08-19T11:29:31;32.20;80.10
18321;DHT22;54904;54.350;18.664;2022-08-19T11:32:00;32.20;79.70
18321;DHT22;54904;54.350;18.664;2022-08-19T11:34:29;32.30;80.00
18321;DHT22;54904;54.350;18.664;2022-08-19T11:36:56;32.40;80.40
18321;DHT22;54904;54.350;18.664;2022-08-19T11:39:28;32.40;80.40
18321;DHT22;54904;54.350;18.664;2022-08-19T11:41:57;32.50;79.90
18321;DHT22;54904;54.350;18.664;2022-08-19T11:44:24;32.50;79.80
18321;DHT22;54904;54.350;18.664;2022-08-19T11:46:51;32.60;79.80
18321;DHT22;54904;54.350;18.664;2022-08-19T11:49:19;32.70;79.80
18321;DHT22;54904;54.350;18.664;2022-08-19T11:51:47;32.70;78.90
18321;DHT22;54904;54.350;18.664;2022-08-19T11:54:16;32.70;78.30
18321;DHT22;54904;54.350;18.664;2022-08-19T11:56:45;32.70;78.50
18321;DHT22;54904;54.350;18.664;2022-08-19T11:59:14;32.70;78.50
18321;DHT22;54904;54.350;18.664;2022-08-19T12:01:42;32.70;78.50
18321;DHT22;54904;54.350;18.664;2022-08-19T12:04:10;32.70;78.30
18321;DHT22;54904;54.350;18.664;2022-08-19T12:06:38;32.70;78.10
18321;DHT22;54904;54.350;18.664;2022-08-19T12:09:08;32.70;78.00
18321;DHT22;54904;54.350;18.664;2022-08-19T12:11:35;32.50;78.40
18321;DHT22;54904;54.350;18.664;2022-08-19T12:14:05;32.50;79.20
18321;DHT22;54904;54.350;18.664;2022-08-19T12:16:33;32.50;78.50
18321;DHT22;54904;54.350;18.664;2022-08-19T12:19:00;32.50;78.10
18321;DHT22;54904;54.350;18.664;2022-08-19T12:21:31;32.60;78.00
18321;DHT22;54904;54.350;18.664;2022-08-19T12:24:00;32.60;78.10
18321;DHT22;54904;54.350;18.664;2022-08-19T12:26:28;32.50;76.00
18321;DHT22;54904;54.350;18.664;2022-08-19T12:28:57;32.60;76.10
18321;DHT22;54904;54.350;18.664;2022-08-19T12:31:26;32.70;76.10
18321;DHT22;54904;54.350;18.664;2022-08-19T12:33:54;32.70;76.10
18321;DHT22;54904;54.350;18.664;2022-08-19T12:36:21;32.70;75.70
18321;DHT22;54904;54.350;18.664;2022-08-19T12:38:48;32.80;75.00
18321;DHT22;54904;54.350;18.664;2022-08-19T12:41:16;32.90;74.60
18321;DHT22;54904;54.350;18.664;2022-08-19T12:43:44;32.90;74.40
18321;DHT22;54904;54.350;18.664;2022-08-19T12:46:12;33.00;73.60
18321;DHT22;54904;54.350;18.664;2022-08-19T12:48:41;33.00;73.10
18321;DHT22;54904;54.350;18.664;2022-08-19T12:51:14;33.00;72.60
18321;DHT22;54904;54.350;18.664;2022-08-19T12:53:42;33.10;71.50
18321;DHT22;54904;54.350;18.664;2022-08-19T12:56:10;33.10;71.50
18321;DHT22;54904;54.350;18.664;2022-08-19T12:58:41;33.20;71.50
18321;DHT22;54904;54.350;18.664;2022-08-19T13:01:11;33.20;71.70
18321;DHT22;54904;54.350;18.664;2022-08-19T13:03:38;33.30;71.20
18321;DHT22;54904;54.350;18.664;2022-08-19T13:06:08;33.30;70.60
18321;DHT22;54904;54.350;18.664;2022-08-19T13:08:35;33.30;69.60
18321;DHT22;54904;54.350;18.664;2022-08-19T13:11:09;33.30;69.40
18321;DHT22;54904;54.350;18.664;2022-08-19T13:13:38;33.30;69.70
18321;DHT22;54904;54.350;18.664;2022-08-19T13:16:07;33.30;69.90
18321;DHT22;54904;54.350;18.664;2022-08-19T13:18:35;33.30;69.50
18321;DHT22;54904;54.350;18.664;2022-08-19T13:21:03;33.20;68.70
18321;DHT22;54904;54.350;18.664;2022-08-19T13:23:33;33.30;68.40
18321;DHT22;54904;54.350;18.664;2022-08-19T13:26:03;33.20;67.80
18321;DHT22;54904;54.350;18.664;2022-08-19T13:28:31;33.30;68.40
18321;DHT22;54904;54.350;18.664;2022-08-19T13:31:15;33.30;68.30
18321;DHT22;54904;54.350;18.664;2022-08-19T13:34:00;33.20;68.00
18321;DHT22;54904;54.350;18.664;2022-08-19T13:36:27;33.20;68.00
18321;DHT22;54904;54.350;18.664;2022-08-19T13:38:55;33.20;68.50
18321;DHT22;54904;54.350;18.664;2022-08-19T13:41:23;33.10;68.60
18321;DHT22;54904;54.350;18.664;2022-08-19T13:43:50;33.10;69.00
18321;DHT22;54904;54.350;18.664;2022-08-19T13:46:17;33.10;69.40
18321;DHT22;54904;54.350;18.664;2022-08-19T13:48:46;33.10;69.40
18321;DHT22;54904;54.350;18.664;2022-08-19T13:51:14;33.00;69.30
18321;DHT22;54904;54.350;18.664;2022-08-19T13:53:42;33.00;69.40
18321;DHT22;54904;54.350;18.664;2022-08-19T13:56:13;33.00;69.70
18321;DHT22;54904;54.350;18.664;2022-08-19T13:58:40;33.00;70.00
18321;DHT22;54904;54.350;18.664;2022-08-19T14:01:08;33.00;69.90
18321;DHT22;54904;54.350;18.664;2022-08-19T14:03:35;33.00;69.80
18321;DHT22;54904;54.350;18.664;2022-08-19T14:06:03;33.00;69.80
18321;DHT22;54904;54.350;18.664;2022-08-19T14:08:30;33.00;68.90
18321;DHT22;54904;54.350;18.664;2022-08-19T14:10:58;32.90;68.30
18321;DHT22;54904;54.350;18.664;2022-08-19T14:13:26;32.90;68.60
18321;DHT22;54904;54.350;18.664;2022-08-19T14:15:53;33.00;69.10
18321;DHT22;54904;54.350;18.664;2022-08-19T14:18:20;33.00;69.70
18321;DHT22;54904;54.350;18.664;2022-08-19T14:20:47;33.00;69.40
18321;DHT22;54904;54.350;18.664;2022-08-19T14:23:14;33.00;69.20
18321;DHT22;54904;54.350;18.664;2022-08-19T14:25:42;33.00;69.40
18321;DHT22;54904;54.350;18.664;2022-08-19T14:28:09;33.00;68.70
18321;DHT22;54904;54.350;18.664;2022-08-19T14:30:38;33.00;68.70
18321;DHT22;54904;54.350;18.664;2022-08-19T14:33:06;33.00;69.00
18321;DHT22;54904;54.350;18.664;2022-08-19T14:35:34;33.00;69.40
18321;DHT22;54904;54.350;18.664;2022-08-19T14:38:01;33.00;69.00
18321;DHT22;54904;54.350;18.664;2022-08-19T14:40:30;33.00;69.10
18321;DHT22;54904;54.350;18.664;2022-08-19T14:42:58;33.00;69.20
18321;DHT22;54904;54.350;18.664;2022-08-19T14:45:30;33.00;68.70
18321;DHT22;54904;54.350;18.664;2022-08-19T14:47:58;32.90;68.90
18321;DHT22;54904;54.350;18.664;2022-08-19T14:50:26;32.90;68.80
18321;DHT22;54904;54.350;18.664;2022-08-19T14:52:58;32.80;69.00
18321;DHT22;54904;54.350;18.664;2022-08-19T14:55:26;32.80;69.20
18321;DHT22;54904;54.350;18.664;2022-08-19T14:57:53;32.80;69.30
18321;DHT22;54904;54.350;18.664;2022-08-19T15:00:21;32.80;69.10
18321;DHT22;54904;54.350;18.664;2022-08-19T15:02:50;32.70;69.30
18321;DHT22;54904;54.350;18.664;2022-08-19T15:05:18;32.70;69.30
18321;DHT22;54904;54.350;18.664;2022-08-19T15:07:45;32.70;69.60
18321;DHT22;54904;54.350;18.664;2022-08-19T15:10:14;32.70;70.00
18321;DHT22;54904;54.350;18.664;2022-08-19T15:12:41;32.70;70.10
18321;DHT22;54904;54.350;18.664;2022-08-19T15:15:10;32.60;70.40
18321;DHT22;54904;54.350;18.664;2022-08-19T15:17:39;32.60;70.70
18321;DHT22;54904;54.350;18.664;2022-08-19T15:20:08;32.60;70.80
18321;DHT22;54904;54.350;18.664;2022-08-19T15:22:36;32.50;71.00
18321;DHT22;54904;54.350;18.664;2022-08-19T15:25:06;32.50;71.30
18321;DHT22;54904;54.350;18.664;2022-08-19T15:27:33;32.50;71.50